sensor_id;sensor_type;location;lat;lon;timestamp;P1;durP1;ratioP1;P2;durP2;ratioP2
23449;SDS011;11897;45.438;12.128;2023-11-19T00:00:29;40.20;;;22.77;;
23449;SDS011;11897;45.438;12.128;2023-11-19T00:02:58;35.90;;;20.90;;
23449;SDS011;11897;45.438;12.128;2023-11-19T00:05:25;33.20;;;21.07;;
23449;SDS011;11897;45.438;12.128;2023-11-19T00:07:52;35.83;;;21.83;;
23449;SDS011;11897;45.438;12.128;2023-11-19T00:10:20;34.63;;;20.70;;
23449;SDS011;11897;45.438;12.128;2023-11-19T00:12:47;32.53;;;21.83;;
23449;SDS011;11897;45.438;12.128;2023-11-19T00:15:14;35.73;;;21.37;;
23449;SDS011;11897;45.438;12.128;2023-11-19T00:17:42;32.77;;;21.63;;
23449;SDS011;11897;45.438;12.128;2023-11-19T00:20:12;33.60;;;21.63;;
23449;SDS011;11897;45.438;12.128;2023-11-19T00:22:40;33.87;;;21.60;;
23449;SDS011;11897;45.438;12.128;2023-11-19T00:25:07;39.93;;;22.20;;
23449;SDS011;11897;45.438;12.128;2023-11-19T00:27:34;31.13;;;20.73;;
23449;SDS011;11897;45.438;12.128;2023-11-19T00:30:00;34.67;;;21.87;;
23449;SDS011;11897;45.438;12.128;2023-11-19T00:32:30;36.70;;;21.43;;
23449;SDS011;11897;45.438;12.128;2023-11-19T00:34:57;30.60;;;19.63;;
23449;SDS011;11897;45.438;12.128;2023-11-19T00:37:25;33.37;;;20.57;;
23449;SDS011;11897;45.438;12.128;2023-11-19T00:39:52;36.40;;;21.50;;
23449;SDS011;11897;45.438;12.128;2023-11-19T00:42:18;30.43;;;20.73;;
23449;SDS011;11897;45.438;12.128;2023-11-19T00:44:45;36.93;;;20.00;;
23449;SDS011;11897;45.438;12.128;2023-11-19T00:47:12;32.50;;;19.93;;
23449;SDS011;11897;45.438;12.128;2023-11-19T00:49:39;33.97;;;20.63;;
23449;SDS011;11897;45.438;12.128;2023-11-19T00:52:05;31.53;;;19.17;;
23449;SDS011;11897;45.438;12.128;2023-11-19T00:54:34;36.53;;;19.23;;
23449;SDS011;11897;45.438;12.128;2023-11-19T00:57:00;31.57;;;18.90;;
23449;SDS011;11897;45.438;12.128;2023-11-19T00:59:27;28.70;;;19.00;;
23449;SDS011;11897;45.438;12.128;2023-11-19T01:01:55;34.20;;;19.23;;
23449;SDS011;11897;45.438;12.128;2023-11-19T01:04:23;31.20;;;17.90;;
23449;SDS011;11897;45.438;12.128;2023-11-19T01:06:50;28.83;;;18.27;;
23449;SDS011;11897;45.438;12.128;2023-11-19T01:09:17;29.47;;;18.13;;
23449;SDS011;11897;45.438;12.128;2023-11-19T01:11:45;29.83;;;18.07;;
23449;SDS011;11897;45.438;12.128;2023-11-19T01:14:11;28.93;;;17.97;;
23449;SDS011;11897;45.438;12.128;2023-11-19T01:16:38;29.13;;;17.50;;
23449;SDS011;11897;45.438;12.128;2023-11-19T01:19:05;24.17;;;16.93;;
23449;SDS011;11897;45.438;12.128;2023-11-19T01:21:31;29.20;;;18.07;;
23449;SDS011;11897;45.438;12.128;2023-11-19T01:23:58;29.10;;;17.20;;
23449;SDS011;11897;45.438;12.128;2023-11-19T01:26:26;29.10;;;16.33;;
23449;SDS011;11897;45.438;12.128;2023-11-19T01:28:54;30.03;;;16.40;;
23449;SDS011;11897;45.438;12.128;2023-11-19T01:31:21;22.40;;;15.17;;
23449;SDS011;11897;45.438;12.128;2023-11-19T01:33:48;24.53;;;15.00;;
23449;SDS011;11897;45.438;12.128;2023-11-19T01:36:14;28.20;;;16.33;;
23449;SDS011;11897;45.438;12.128;2023-11-19T01:38:41;24.50;;;16.57;;
23449;SDS011;11897;45.438;12.128;2023-11-19T01:41:08;25.73;;;16.13;;
23449;SDS011;11897;45.438;12.128;2023-11-19T01:43:36;26.47;;;16.93;;
23449;SDS011;11897;45.438;12.128;2023-11-19T01:46:08;24.50;;;15.40;;
23449;SDS011;11897;45.438;12.128;2023-11-19T01:48:37;30.73;;;15.97;;
23449;SDS011;11897;45.438;12.128;2023-11-19T01:51:06;26.43;;;16.33;;
23449;SDS011;11897;45.438;12.128;2023-11-19T01:53:34;25.90;;;15.80;;
23449;SDS011;11897;45.438;12.128;2023-11-19T01:56:01;24.33;;;15.70;;
23449;SDS011;11897;45.438;12.128;2023-11-19T01:58:30;24.07;;;16.07;;
23449;SDS011;11897;45.438;12.128;2023-11-19T02:00:57;25.90;;;16.37;;
23449;SDS011;11897;45.438;12.128;2023-11-19T02:03:25;23.13;;;16.07;;
23449;SDS011;11897;45.438;12.128;2023-11-19T02:05:55;23.30;;;15.53;;
23449;SDS011;11897;45.438;12.128;2023-11-19T02:08:23;28.90;;;17.67;;
23449;SDS011;11897;45.438;12.128;2023-11-19T02:10:51;27.50;;;16.23;;
23449;SDS011;11897;45.438;12.128;2023-11-19T02:13:20;23.20;;;15.63;;
23449;SDS011;11897;45.438;12.128;2023-11-19T02:15:46;26.60;;;15.97;;
23449;SDS011;11897;45.438;12.128;2023-11-19T02:18:20;25.60;;;16.47;;
23449;SDS011;11897;45.438;12.128;2023-11-19T02:20:48;31.83;;;16.20;;
23449;SDS011;11897;45.438;12.128;2023-11-19T02:23:15;27.90;;;14.97;;
23449;SDS011;11897;45.438;12.128;2023-11-19T02:25:43;26.13;;;15.03;;
23449;SDS011;11897;45.438;12.128;2023-11-19T02:28:16;24.70;;;14.77;;
23449;SDS011;11897;45.438;12.128;2023-11-19T02:30:43;26.30;;;15.40;;
23449;SDS011;11897;45.438;12.128;2023-11-19T02:33:10;25.30;;;16.03;;
23449;SDS011;11897;45.438;12.128;2023-11-19T02:35:38;26.43;;;15.70;;
23449;SDS011;11897;45.438;12.128;2023-11-19T02:38:06;26.23;;;16.27;;
23449;SDS011;11897;45.438;12.128;2023-11-19T02:40:33;25.10;;;15.50;;
23449;SDS011;11897;45.438;12.128;2023-11-19T02:42:59;26.50;;;15.77;;
23449;SDS011;11897;45.438;12.128;2023-11-19T02:45:31;25.67;;;16.07;;
23449;SDS011;11897;45.438;12.128;2023-11-19T02:48:02;25.53;;;16.03;;
23449;SDS011;11897;45.438;12.128;2023-11-19T02:50:31;29.07;;;16.07;;
23449;SDS011;11897;45.438;12.128;2023-11-19T02:53:00;23.50;;;14.43;;
23449;SDS011;11897;45.438;12.128;2023-11-19T02:55:28;26.07;;;15.77;;
23449;SDS011;11897;45.438;12.128;2023-11-19T02:57:59;21.73;;;14.97;;
23449;SDS011;11897;45.438;12.128;2023-11-19T03:00:33;23.40;;;15.20;;
23449;SDS011;11897;45.438;12.128;2023-11-19T03:03:08;24.47;;;16.03;;
23449;SDS011;11897;45.438;12.128;2023-11-19T03:05:46;25.70;;;15.13;;
23449;SDS011;11897;45.438;12.128;2023-11-19T03:08:16;25.43;;;16.07;;
23449;SDS011;11897;45.438;12.128;2023-11-19T03:10:42;25.73;;;15.57;;
23449;SDS011;11897;45.438;12.128;2023-11-19T03:13:11;28.53;;;15.40;;
23449;SDS011;11897;45.438;12.128;2023-11-19T03:15:40;23.87;;;14.57;;
23449;SDS011;11897;45.438;12.128;2023-11-19T03:18:08;24.13;;;15.33;;
23449;SDS011;11897;45.438;12.128;2023-11-19T03:20:35;25.57;;;15.30;;
23449;SDS011;11897;45.438;12.128;2023-11-19T03:23:01;27.07;;;15.70;;
23449;SDS011;11897;45.438;12.128;2023-11-19T03:25:28;23.50;;;15.53;;
23449;SDS011;11897;45.438;12.128;2023-11-19T03:28:00;27.63;;;16.30;;
23449;SDS011;11897;45.438;12.128;2023-11-19T03:30:28;30.10;;;17.83;;
23449;SDS011;11897;45.438;12.128;2023-11-19T03:32:57;27.47;;;16.40;;
23449;SDS011;11897;45.438;12.128;2023-11-19T03:35:25;25.83;;;16.63;;
23449;SDS011;11897;45.438;12.128;2023-11-19T03:37:51;26.43;;;16.13;;
23449;SDS011;11897;45.438;12.128;2023-11-19T03:40:18;27.87;;;17.40;;
23449;SDS011;11897;45.438;12.128;2023-11-19T03:42:45;31.40;;;18.37;;
23449;SDS011;11897;45.438;12.128;2023-11-19T03:45:11;27.10;;;17.33;;
23449;SDS011;11897;45.438;12.128;2023-11-19T03:47:37;31.33;;;18.83;;
23449;SDS011;11897;45.438;12.128;2023-11-19T03:50:06;28.27;;;17.33;;
23449;SDS011;11897;45.438;12.128;2023-11-19T03:52:34;28.53;;;18.27;;
23449;SDS011;11897;45.438;12.128;2023-11-19T03:55:02;31.23;;;17.60;;
23449;SDS011;11897;45.438;12.128;2023-11-19T03:57:30;28.33;;;17.63;;
23449;SDS011;11897;45.438;12.128;2023-11-19T03:59:56;27.33;;;17.63;;
23449;SDS011;11897;45.438;12.128;2023-11-19T04:02:23;27.70;;;17.77;;
23449;SDS011;11897;45.438;12.128;2023-11-19T04:04:53;28.07;;;17.70;;
23449;SDS011;11897;45.438;12.128;2023-11-19T04:07:21;35.93;;;19.23;;
23449;SDS011;11897;45.438;12.128;2023-11-19T04:09:48;45.63;;;21.27;;
23449;SDS011;11897;45.438;12.128;2023-11-19T04:12:15;40.00;;;21.07;;
23449;SDS011;11897;45.438;12.128;2023-11-19T04:14:41;50.47;;;21.53;;
23449;SDS011;11897;45.438;12.128;2023-11-19T04:17:09;45.37;;;21.50;;
23449;SDS011;11897;45.438;12.128;2023-11-19T04:19:36;48.03;;;22.67;;
23449;SDS011;11897;45.438;12.128;2023-11-19T04:22:03;46.43;;;22.47;;
23449;SDS011;11897;45.438;12.128;2023-11-19T04:24:31;57.63;;;22.37;;
23449;SDS011;11897;45.438;12.128;2023-11-19T04:26:58;49.23;;;22.17;;
23449;SDS011;11897;45.438;12.128;2023-11-19T04:29:25;50.43;;;21.67;;
23449;SDS011;11897;45.438;12.128;2023-11-19T04:31:52;53.53;;;23.57;;
23449;SDS011;11897;45.438;12.128;2023-11-19T04:34:20;49.47;;;21.77;;
23449;SDS011;11897;45.438;12.128;2023-11-19T04:36:47;52.77;;;22.20;;
23449;SDS011;11897;45.438;12.128;2023-11-19T04:39:14;47.70;;;22.00;;
23449;SDS011;11897;45.438;12.128;2023-11-19T04:41:48;57.50;;;22.17;;
23449;SDS011;11897;45.438;12.128;2023-11-19T04:44:16;54.53;;;22.03;;
23449;SDS011;11897;45.438;12.128;2023-11-19T04:46:43;50.00;;;22.07;;
23449;SDS011;11897;45.438;12.128;2023-11-19T04:49:12;46.17;;;21.07;;
23449;SDS011;11897;45.438;12.128;2023-11-19T04:51:39;52.20;;;22.23;;
23449;SDS011;11897;45.438;12.128;2023-11-19T04:54:09;52.47;;;22.13;;
23449;SDS011;11897;45.438;12.128;2023-11-19T04:56:37;57.70;;;23.17;;
23449;SDS011;11897;45.438;12.128;2023-11-19T04:59:07;46.27;;;19.70;;
23449;SDS011;11897;45.438;12.128;2023-11-19T05:01:35;44.00;;;20.77;;
23449;SDS011;11897;45.438;12.128;2023-11-19T05:04:02;51.13;;;20.03;;
23449;SDS011;11897;45.438;12.128;2023-11-19T05:06:29;46.23;;;20.33;;
23449;SDS011;11897;45.438;12.128;2023-11-19T05:08:56;48.10;;;19.70;;
23449;SDS011;11897;45.438;12.128;2023-11-19T05:11:26;39.57;;;20.30;;
23449;SDS011;11897;45.438;12.128;2023-11-19T05:13:54;44.53;;;20.07;;
23449;SDS011;11897;45.438;12.128;2023-11-19T05:16:22;41.37;;;20.60;;
23449;SDS011;11897;45.438;12.128;2023-11-19T05:18:48;48.10;;;20.87;;
23449;SDS011;11897;45.438;12.128;2023-11-19T05:21:16;45.43;;;19.70;;
23449;SDS011;11897;45.438;12.128;2023-11-19T05:23:43;41.70;;;19.93;;
23449;SDS011;11897;45.438;12.128;2023-11-19T05:26:17;40.43;;;19.03;;
23449;SDS011;11897;45.438;12.128;2023-11-19T05:28:45;48.83;;;20.53;;
23449;SDS011;11897;45.438;12.128;2023-11-19T05:31:12;42.87;;;19.80;;
23449;SDS011;11897;45.438;12.128;2023-11-19T05:33:40;44.17;;;19.90;;
23449;SDS011;11897;45.438;12.128;2023-11-19T05:36:07;43.80;;;20.20;;
23449;SDS011;11897;45.438;12.128;2023-11-19T05:38:34;42.87;;;18.80;;
23449;SDS011;11897;45.438;12.128;2023-11-19T05:41:01;40.50;;;19.43;;
23449;SDS011;11897;45.438;12.128;2023-11-19T05:43:31;40.27;;;19.17;;
23449;SDS011;11897;45.438;12.128;2023-11-19T05:45:58;45.13;;;19.87;;
23449;SDS011;11897;45.438;12.128;2023-11-19T05:48:26;46.57;;;19.87;;
23449;SDS011;11897;45.438;12.128;2023-11-19T05:50:55;41.33;;;19.27;;
23449;SDS011;11897;45.438;12.128;2023-11-19T05:53:22;43.77;;;19.50;;
23449;SDS011;11897;45.438;12.128;2023-11-19T05:55:51;38.97;;;18.80;;
23449;SDS011;11897;45.438;12.128;2023-11-19T05:58:23;39.77;;;19.50;;
23449;SDS011;11897;45.438;12.128;2023-11-19T06:00:54;34.83;;;19.70;;
23449;SDS011;11897;45.438;12.128;2023-11-19T06:03:21;37.87;;;20.27;;
23449;SDS011;11897;45.438;12.128;2023-11-19T06:05:49;40.47;;;18.77;;
23449;SDS011;11897;45.438;12.128;2023-11-19T06:08:19;38.30;;;18.60;;
23449;SDS011;11897;45.438;12.128;2023-11-19T06:10:47;36.47;;;18.20;;
23449;SDS011;11897;45.438;12.128;2023-11-19T06:13:15;39.40;;;17.63;;
23449;SDS011;11897;45.438;12.128;2023-11-19T06:15:42;37.37;;;17.83;;
23449;SDS011;11897;45.438;12.128;2023-11-19T06:18:09;31.77;;;17.27;;
23449;SDS011;11897;45.438;12.128;2023-11-19T06:20:37;31.80;;;17.63;;
23449;SDS011;11897;45.438;12.128;2023-11-19T06:23:03;37.93;;;17.37;;
23449;SDS011;11897;45.438;12.128;2023-11-19T06:25:32;33.43;;;17.97;;
23449;SDS011;11897;45.438;12.128;2023-11-19T06:28:00;41.43;;;17.00;;
23449;SDS011;11897;45.438;12.128;2023-11-19T06:30:27;34.07;;;18.17;;
23449;SDS011;11897;45.438;12.128;2023-11-19T06:32:55;37.57;;;17.53;;
23449;SDS011;11897;45.438;12.128;2023-11-19T06:35:22;37.00;;;18.23;;
23449;SDS011;11897;45.438;12.128;2023-11-19T06:37:48;31.33;;;16.23;;
23449;SDS011;11897;45.438;12.128;2023-11-19T06:40:15;29.80;;;17.07;;
23449;SDS011;11897;45.438;12.128;2023-11-19T06:42:43;28.47;;;16.27;;
23449;SDS011;11897;45.438;12.128;2023-11-19T06:45:13;36.67;;;17.60;;
23449;SDS011;11897;45.438;12.128;2023-11-19T06:47:40;35.00;;;17.27;;
23449;SDS011;11897;45.438;12.128;2023-11-19T06:50:09;34.40;;;17.23;;
23449;SDS011;11897;45.438;12.128;2023-11-19T06:52:37;33.57;;;18.67;;
23449;SDS011;11897;45.438;12.128;2023-11-19T06:55:13;38.00;;;18.63;;
23449;SDS011;11897;45.438;12.128;2023-11-19T06:57:44;27.80;;;16.73;;
23449;SDS011;11897;45.438;12.128;2023-11-19T07:00:19;32.50;;;17.07;;
23449;SDS011;11897;45.438;12.128;2023-11-19T07:02:48;30.87;;;16.97;;
23449;SDS011;11897;45.438;12.128;2023-11-19T07:05:18;41.17;;;19.07;;
23449;SDS011;11897;45.438;12.128;2023-11-19T07:07:45;32.37;;;17.93;;
23449;SDS011;11897;45.438;12.128;2023-11-19T07:10:12;38.10;;;18.73;;
23449;SDS011;11897;45.438;12.128;2023-11-19T07:12:39;37.40;;;18.67;;
23449;SDS011;11897;45.438;12.128;2023-11-19T07:15:12;40.33;;;18.20;;
23449;SDS011;11897;45.438;12.128;2023-11-19T07:17:45;34.23;;;18.33;;
23449;SDS011;11897;45.438;12.128;2023-11-19T07:20:14;35.97;;;17.17;;
23449;SDS011;11897;45.438;12.128;2023-11-19T07:22:42;45.80;;;20.10;;
23449;SDS011;11897;45.438;12.128;2023-11-19T07:25:11;34.77;;;18.47;;
23449;SDS011;11897;45.438;12.128;2023-11-19T07:27:44;39.27;;;17.80;;
23449;SDS011;11897;45.438;12.128;2023-11-19T07:30:15;28.77;;;16.00;;
23449;SDS011;11897;45.438;12.128;2023-11-19T07:32:43;28.47;;;14.53;;
23449;SDS011;11897;45.438;12.128;2023-11-19T07:35:09;29.40;;;14.13;;
23449;SDS011;11897;45.438;12.128;2023-11-19T07:37:37;26.43;;;13.10;;
23449;SDS011;11897;45.438;12.128;2023-11-19T07:40:05;21.80;;;13.00;;
23449;SDS011;11897;45.438;12.128;2023-11-19T07:42:31;23.97;;;13.70;;
23449;SDS011;11897;45.438;12.128;2023-11-19T07:44:58;23.10;;;13.33;;
23449;SDS011;11897;45.438;12.128;2023-11-19T07:47:26;25.00;;;13.93;;
23449;SDS011;11897;45.438;12.128;2023-11-19T07:49:54;29.37;;;13.23;;
23449;SDS011;11897;45.438;12.128;2023-11-19T07:52:20;28.23;;;13.37;;
23449;SDS011;11897;45.438;12.128;2023-11-19T07:54:47;24.43;;;12.43;;
23449;SDS011;11897;45.438;12.128;2023-11-19T07:57:14;30.77;;;13.60;;
23449;SDS011;11897;45.438;12.128;2023-11-19T07:59:40;20.73;;;12.90;;
23449;SDS011;11897;45.438;12.128;2023-11-19T08:02:07;25.47;;;13.17;;
23449;SDS011;11897;45.438;12.128;2023-11-19T08:04:35;24.77;;;11.77;;
23449;SDS011;11897;45.438;12.128;2023-11-19T08:07:05;28.53;;;12.43;;
23449;SDS011;11897;45.438;12.128;2023-11-19T08:09:31;26.57;;;12.27;;
23449;SDS011;11897;45.438;12.128;2023-11-19T08:11:59;22.40;;;12.00;;
23449;SDS011;11897;45.438;12.128;2023-11-19T08:14:26;26.43;;;13.07;;
23449;SDS011;11897;45.438;12.128;2023-11-19T08:16:53;23.50;;;12.13;;
23449;SDS011;11897;45.438;12.128;2023-11-19T08:19:21;21.53;;;12.30;;
23449;SDS011;11897;45.438;12.128;2023-11-19T08:21:49;20.50;;;10.93;;
23449;SDS011;11897;45.438;12.128;2023-11-19T08:24:20;21.47;;;11.83;;
23449;SDS011;11897;45.438;12.128;2023-11-19T08:26:47;19.57;;;10.60;;
23449;SDS011;11897;45.438;12.128;2023-11-19T08:29:13;18.50;;;10.60;;
23449;SDS011;11897;45.438;12.128;2023-11-19T08:31:40;15.63;;;9.87;;
23449;SDS011;11897;45.438;12.128;2023-11-19T08:34:07;24.03;;;10.70;;
23449;SDS011;11897;45.438;12.128;2023-11-19T08:36:34;23.20;;;10.50;;
23449;SDS011;11897;45.438;12.128;2023-11-19T08:39:02;17.20;;;10.63;;
23449;SDS011;11897;45.438;12.128;2023-11-19T08:41:29;21.53;;;11.33;;
23449;SDS011;11897;45.438;12.128;2023-11-19T08:43:56;20.60;;;11.13;;
23449;SDS011;11897;45.438;12.128;2023-11-19T08:46:22;15.23;;;9.23;;
23449;SDS011;11897;45.438;12.128;2023-11-19T08:48:50;18.83;;;10.37;;
23449;SDS011;11897;45.438;12.128;2023-11-19T08:51:17;18.47;;;10.73;;
23449;SDS011;11897;45.438;12.128;2023-11-19T08:53:45;17.37;;;9.20;;
23449;SDS011;11897;45.438;12.128;2023-11-19T08:56:14;16.20;;;7.73;;
23449;SDS011;11897;45.438;12.128;2023-11-19T08:58:40;12.50;;;7.47;;
23449;SDS011;11897;45.438;12.128;2023-11-19T09:01:08;12.87;;;7.43;;
23449;SDS011;11897;45.438;12.128;2023-11-19T09:03:36;17.23;;;8.30;;
23449;SDS011;11897;45.438;12.128;2023-11-19T09:06:04;15.97;;;8.90;;
23449;SDS011;11897;45.438;12.128;2023-11-19T09:08:31;12.63;;;7.83;;
23449;SDS011;11897;45.438;12.128;2023-11-19T09:10:57;10.33;;;8.10;;
23449;SDS011;11897;45.438;12.128;2023-11-19T09:13:26;14.30;;;7.73;;
23449;SDS011;11897;45.438;12.128;2023-11-19T09:15:53;11.03;;;7.00;;
23449;SDS011;11897;45.438;12.128;2023-11-19T09:18:22;12.57;;;7.17;;
23449;SDS011;11897;45.438;12.128;2023-11-19T09:20:54;10.83;;;6.87;;
23449;SDS011;11897;45.438;12.128;2023-11-19T09:23:22;10.03;;;7.07;;
23449;SDS011;11897;45.438;12.128;2023-11-19T09:25:53;11.97;;;7.17;;
23449;SDS011;11897;45.438;12.128;2023-11-19T09:28:20;10.97;;;7.43;;
23449;SDS011;11897;45.438;12.128;2023-11-19T09:30:50;12.43;;;6.70;;
23449;SDS011;11897;45.438;12.128;2023-11-19T09:33:16;11.43;;;6.90;;
23449;SDS011;11897;45.438;12.128;2023-11-19T09:35:43;11.63;;;7.03;;
23449;SDS011;11897;45.438;12.128;2023-11-19T09:38:10;9.37;;;7.07;;
23449;SDS011;11897;45.438;12.128;2023-11-19T09:40:38;11.13;;;6.20;;
23449;SDS011;11897;45.438;12.128;2023-11-19T09:43:05;9.57;;;6.00;;
23449;SDS011;11897;45.438;12.128;2023-11-19T09:45:35;8.63;;;5.57;;
23449;SDS011;11897;45.438;12.128;2023-11-19T09:48:10;8.83;;;5.80;;
23449;SDS011;11897;45.438;12.128;2023-11-19T09:50:38;8.53;;;5.20;;
23449;SDS011;11897;45.438;12.128;2023-11-19T09:53:05;8.77;;;5.20;;
23449;SDS011;11897;45.438;12.128;2023-11-19T09:55:32;7.83;;;5.00;;
23449;SDS011;11897;45.438;12.128;2023-11-19T09:57:59;9.37;;;5.33;;
23449;SDS011;11897;45.438;12.128;2023-11-19T10:00:26;6.77;;;4.57;;
23449;SDS011;11897;45.438;12.128;2023-11-19T10:02:53;8.30;;;5.40;;
23449;SDS011;11897;45.438;12.128;2023-11-19T10:05:23;7.10;;;5.20;;
23449;SDS011;11897;45.438;12.128;2023-11-19T10:07:51;8.77;;;5.43;;
23449;SDS011;11897;45.438;12.128;2023-11-19T10:10:18;7.10;;;5.00;;
23449;SDS011;11897;45.438;12.128;2023-11-19T10:12:45;12.50;;;5.10;;
23449;SDS011;11897;45.438;12.128;2023-11-19T10:15:14;6.73;;;4.93;;
23449;SDS011;11897;45.438;12.128;2023-11-19T10:17:43;8.23;;;5.37;;
23449;SDS011;11897;45.438;12.128;2023-11-19T10:20:10;7.27;;;4.53;;
23449;SDS011;11897;45.438;12.128;2023-11-19T10:22:38;7.40;;;4.80;;
23449;SDS011;11897;45.438;12.128;2023-11-19T10:25:05;7.87;;;4.97;;
23449;SDS011;11897;45.438;12.128;2023-11-19T10:27:47;8.13;;;5.50;;
23449;SDS011;11897;45.438;12.128;2023-11-19T10:30:17;7.60;;;4.53;;
23449;SDS011;11897;45.438;12.128;2023-11-19T10:32:43;5.77;;;4.20;;
23449;SDS011;11897;45.438;12.128;2023-11-19T10:35:10;6.37;;;4.30;;
23449;SDS011;11897;45.438;12.128;2023-11-19T10:37:40;9.10;;;4.37;;
23449;SDS011;11897;45.438;12.128;2023-11-19T10:40:07;6.27;;;3.97;;
23449;SDS011;11897;45.438;12.128;2023-11-19T10:42:35;8.37;;;4.10;;
23449;SDS011;11897;45.438;12.128;2023-11-19T10:45:02;6.93;;;4.77;;
23449;SDS011;11897;45.438;12.128;2023-11-19T10:47:29;7.17;;;4.63;;
23449;SDS011;11897;45.438;12.128;2023-11-19T10:49:58;8.60;;;4.83;;
23449;SDS011;11897;45.438;12.128;2023-11-19T10:52:24;7.10;;;4.47;;
23449;SDS011;11897;45.438;12.128;2023-11-19T10:54:54;7.37;;;4.40;;
23449;SDS011;11897;45.438;12.128;2023-11-19T10:57:23;7.97;;;5.03;;
23449;SDS011;11897;45.438;12.128;2023-11-19T10:59:51;7.43;;;4.40;;
23449;SDS011;11897;45.438;12.128;2023-11-19T11:02:19;8.03;;;4.30;;
23449;SDS011;11897;45.438;12.128;2023-11-19T11:04:48;12.03;;;4.37;;
23449;SDS011;11897;45.438;12.128;2023-11-19T11:07:16;9.37;;;4.93;;
23449;SDS011;11897;45.438;12.128;2023-11-19T11:09:45;7.37;;;4.53;;
23449;SDS011;11897;45.438;12.128;2023-11-19T11:12:15;8.23;;;4.60;;
23449;SDS011;11897;45.438;12.128;2023-11-19T11:14:45;6.90;;;4.70;;
23449;SDS011;11897;45.438;12.128;2023-11-19T11:17:12;6.80;;;4.67;;
23449;SDS011;11897;45.438;12.128;2023-11-19T11:19:45;7.67;;;4.60;;
23449;SDS011;11897;45.438;12.128;2023-11-19T11:22:12;9.53;;;4.80;;
23449;SDS011;11897;45.438;12.128;2023-11-19T11:24:47;7.80;;;4.90;;
23449;SDS011;11897;45.438;12.128;2023-11-19T11:30:17;5.90;;;4.40;;
23449;SDS011;11897;45.438;12.128;2023-11-19T11:32:49;7.37;;;4.57;;
23449;SDS011;11897;45.438;12.128;2023-11-19T11:35:24;7.27;;;4.60;;
23449;SDS011;11897;45.438;12.128;2023-11-19T11:37:54;7.50;;;4.50;;
23449;SDS011;11897;45.438;12.128;2023-11-19T11:40:22;7.50;;;4.70;;
23449;SDS011;11897;45.438;12.128;2023-11-19T11:42:48;7.47;;;5.27;;
23449;SDS011;11897;45.438;12.128;2023-11-19T11:45:18;8.83;;;5.07;;
23449;SDS011;11897;45.438;12.128;2023-11-19T11:50:32;7.80;;;4.80;;
23449;SDS011;11897;45.438;12.128;2023-11-19T11:53:13;8.00;;;5.47;;
23449;SDS011;11897;45.438;12.128;2023-11-19T11:55:51;9.53;;;5.80;;
23449;SDS011;11897;45.438;12.128;2023-11-19T11:58:20;8.50;;;5.43;;
23449;SDS011;11897;45.438;12.128;2023-11-19T12:00:48;8.97;;;6.10;;
23449;SDS011;11897;45.438;12.128;2023-11-19T12:03:16;9.83;;;6.00;;
23449;SDS011;11897;45.438;12.128;2023-11-19T12:05:45;9.57;;;5.23;;
23449;SDS011;11897;45.438;12.128;2023-11-19T12:08:12;10.33;;;5.50;;
23449;SDS011;11897;45.438;12.128;2023-11-19T12:10:43;9.23;;;6.00;;
23449;SDS011;11897;45.438;12.128;2023-11-19T12:13:11;10.33;;;5.93;;
23449;SDS011;11897;45.438;12.128;2023-11-19T12:18:21;10.13;;;6.17;;
23449;SDS011;11897;45.438;12.128;2023-11-19T12:20:49;8.73;;;5.93;;
23449;SDS011;11897;45.438;12.128;2023-11-19T12:23:17;8.80;;;5.80;;
23449;SDS011;11897;45.438;12.128;2023-11-19T12:25:44;8.70;;;6.23;;
23449;SDS011;11897;45.438;12.128;2023-11-19T12:28:11;8.98;;;5.68;;
23449;SDS011;11897;45.438;12.128;2023-11-19T12:30:38;10.00;;;6.20;;
23449;SDS011;11897;45.438;12.128;2023-11-19T12:33:07;10.23;;;6.10;;
23449;SDS011;11897;45.438;12.128;2023-11-19T12:35:36;9.48;;;6.20;;
23449;SDS011;11897;45.438;12.128;2023-11-19T12:38:04;13.35;;;7.22;;
23449;SDS011;11897;45.438;12.128;2023-11-19T12:40:31;10.27;;;6.53;;
23449;SDS011;11897;45.438;12.128;2023-11-19T12:42:58;10.43;;;6.35;;
23449;SDS011;11897;45.438;12.128;2023-11-19T12:45:34;11.38;;;6.93;;
23449;SDS011;11897;45.438;12.128;2023-11-19T12:48:04;10.50;;;7.07;;
23449;SDS011;11897;45.438;12.128;2023-11-19T12:50:32;11.82;;;7.60;;
23449;SDS011;11897;45.438;12.128;2023-11-19T12:53:17;11.25;;;6.80;;
23449;SDS011;11897;45.438;12.128;2023-11-19T12:55:44;14.25;;;7.55;;
23449;SDS011;11897;45.438;12.128;2023-11-19T13:00:58;12.60;;;7.50;;
23449;SDS011;11897;45.438;12.128;2023-11-19T13:03:28;10.77;;;6.60;;
23449;SDS011;11897;45.438;12.128;2023-11-19T13:06:00;10.95;;;6.72;;
23449;SDS011;11897;45.438;12.128;2023-11-19T13:08:35;10.00;;;6.80;;
23449;SDS011;11897;45.438;12.128;2023-11-19T13:11:04;10.70;;;6.33;;
23449;SDS011;11897;45.438;12.128;2023-11-19T13:13:32;11.57;;;7.00;;
23449;SDS011;11897;45.438;12.128;2023-11-19T13:16:01;11.40;;;7.63;;
23449;SDS011;11897;45.438;12.128;2023-11-19T13:18:29;12.67;;;8.17;;
23449;SDS011;11897;45.438;12.128;2023-11-19T13:20:55;15.07;;;8.10;;
23449;SDS011;11897;45.438;12.128;2023-11-19T13:23:22;13.93;;;8.50;;
23449;SDS011;11897;45.438;12.128;2023-11-19T13:25:50;13.50;;;8.20;;
23449;SDS011;11897;45.438;12.128;2023-11-19T13:28:17;13.80;;;8.20;;
23449;SDS011;11897;45.438;12.128;2023-11-19T13:30:44;15.90;;;9.27;;
23449;SDS011;11897;45.438;12.128;2023-11-19T13:33:10;13.53;;;7.80;;
23449;SDS011;11897;45.438;12.128;2023-11-19T13:35:38;12.33;;;7.90;;
23449;SDS011;11897;45.438;12.128;2023-11-19T13:38:06;15.87;;;9.50;;
23449;SDS011;11897;45.438;12.128;2023-11-19T13:40:34;13.17;;;7.50;;
23449;SDS011;11897;45.438;12.128;2023-11-19T13:43:02;12.70;;;8.53;;
23449;SDS011;11897;45.438;12.128;2023-11-19T13:45:29;15.07;;;7.80;;
23449;SDS011;11897;45.438;12.128;2023-11-19T13:47:57;11.63;;;7.57;;
23449;SDS011;11897;45.438;12.128;2023-11-19T13:50:24;11.20;;;7.70;;
23449;SDS011;11897;45.438;12.128;2023-11-19T13:52:51;12.57;;;8.20;;
23449;SDS011;11897;45.438;12.128;2023-11-19T13:55:18;12.93;;;7.87;;
23449;SDS011;11897;45.438;12.128;2023-11-19T13:57:49;12.03;;;7.63;;
23449;SDS011;11897;45.438;12.128;2023-11-19T14:00:19;14.27;;;8.30;;
23449;SDS011;11897;45.438;12.128;2023-11-19T14:02:49;13.83;;;7.40;;
23449;SDS011;11897;45.438;12.128;2023-11-19T14:05:17;14.30;;;7.73;;
23449;SDS011;11897;45.438;12.128;2023-11-19T14:07:44;11.53;;;8.00;;
23449;SDS011;11897;45.438;12.128;2023-11-19T14:10:13;15.53;;;8.43;;
23449;SDS011;11897;45.438;12.128;2023-11-19T14:12:40;12.90;;;7.90;;
23449;SDS011;11897;45.438;12.128;2023-11-19T14:15:07;13.97;;;7.93;;
23449;SDS011;11897;45.438;12.128;2023-11-19T14:17:36;15.50;;;8.33;;
23449;SDS011;11897;45.438;12.128;2023-11-19T14:20:04;16.27;;;8.77;;
23449;SDS011;11897;45.438;12.128;2023-11-19T14:22:38;15.10;;;8.77;;
23449;SDS011;11897;45.438;12.128;2023-11-19T14:25:04;13.33;;;8.20;;
23449;SDS011;11897;45.438;12.128;2023-11-19T14:27:35;14.83;;;8.30;;
23449;SDS011;11897;45.438;12.128;2023-11-19T14:30:02;14.10;;;8.27;;
23449;SDS011;11897;45.438;12.128;2023-11-19T14:32:30;13.10;;;8.17;;